createdAt,value
2019-02-27T00:01:42.507Z,100808.14
2019-02-27T00:04:18.349Z,100805.97
2019-02-27T00:06:54.219Z,100795.05
2019-02-27T00:09:32.730Z,100798.66
2019-02-27T00:12:08.162Z,100795.56
2019-02-27T00:14:44.221Z,100799.13
2019-02-27T00:17:20.285Z,100803.58
2019-02-27T00:19:56.132Z,100803.53
2019-02-27T00:22:31.993Z,100806.24
2019-02-27T00:25:07.844Z,100809.31
2019-02-27T00:27:48.858Z,100812.41
2019-02-27T00:30:22.430Z,100805.81
2019-02-27T00:32:58.283Z,100805.05
2019-02-27T00:35:34.131Z,100810.36
2019-02-27T00:38:09.980Z,100816.02
2019-02-27T00:40:45.831Z,100812.55
2019-02-27T00:43:21.694Z,100808.99
2019-02-27T00:45:57.537Z,100805.56
2019-02-27T00:48:34.417Z,100805.67
2019-02-27T00:51:12.025Z,100806.20
2019-02-27T00:53:47.763Z,100803.20
2019-02-27T00:56:23.626Z,100795.78
2019-02-27T00:59:00.221Z,100792.73
2019-02-27T01:01:36.666Z,100789.78
2019-02-27T01:04:12.513Z,100788.97
2019-02-27T01:06:48.376Z,100786.84
2019-02-27T01:09:24.220Z,100787.30
2019-02-27T01:12:00.179Z,100786.84
2019-02-27T01:14:37.722Z,100799.16
2019-02-27T01:17:13.941Z,100802.23
2019-02-27T01:19:49.788Z,100802.24
2019-02-27T01:22:25.591Z,100803.59
2019-02-27T01:25:02.415Z,100804.93
2019-02-27T01:27:38.712Z,100803.20
2019-02-27T01:30:18.234Z,100793.64
2019-02-27T01:32:54.074Z,100790.56
2019-02-27T01:35:29.929Z,100787.56
2019-02-27T01:38:05.915Z,100781.85
2019-02-27T01:40:41.855Z,100764.80
2019-02-27T01:43:17.694Z,100758.17
2019-02-27T01:45:54.282Z,100760.05
2019-02-27T01:48:30.849Z,100752.58
2019-02-27T01:51:06.687Z,100758.28
2019-02-27T01:53:42.556Z,100760.41
2019-02-27T01:56:18.403Z,100763.54
2019-02-27T01:58:54.259Z,100759.70
2019-02-27T02:01:30.810Z,100760.20
2019-02-27T02:04:06.678Z,100758.95
2019-02-27T02:06:42.532Z,100750.15
2019-02-27T02:09:32.724Z,100748.94
2019-02-27T02:12:20.262Z,100749.37
2019-02-27T02:15:08.506Z,100747.66
2019-02-27T02:17:50.393Z,100748.57
2019-02-27T02:20:31.879Z,100743.72
2019-02-27T02:23:34.881Z,100746.00
2019-02-27T02:26:41.231Z,100745.22
2019-02-27T02:29:45.861Z,100736.52
2019-02-27T02:32:40.431Z,100735.70
2019-02-27T02:35:28.194Z,100747.58
2019-02-27T02:38:12.581Z,100745.81
2019-02-27T02:41:08.406Z,100733.53
2019-02-27T02:44:12.284Z,100730.45
2019-02-27T02:46:57.147Z,100735.30
2019-02-27T02:49:55.744Z,100740.97
2019-02-27T02:52:41.570Z,100738.84
2019-02-27T02:55:36.107Z,100744.91
2019-02-27T02:58:36.435Z,100743.67
2019-02-27T03:01:24.078Z,100751.08
2019-02-27T03:04:34.749Z,100746.22
2019-02-27T03:07:36.499Z,100748.31
2019-02-27T03:10:15.325Z,100750.39
2019-02-27T03:12:57.027Z,100754.78
2019-02-27T03:15:44.538Z,100752.11
2019-02-27T03:18:41.923Z,100760.81
2019-02-27T03:21:38.706Z,100755.19
2019-02-27T03:24:44.913Z,100752.02
2019-02-27T03:27:30.630Z,100745.84
2019-02-27T03:30:07.777Z,100750.25
2019-02-27T03:32:49.686Z,100749.42
2019-02-27T03:35:45.311Z,100754.59
2019-02-27T03:38:29.959Z,100753.67
2019-02-27T03:41:22.835Z,100754.09
2019-02-27T03:44:04.497Z,100736.58
2019-02-27T03:46:50.419Z,100739.67
2019-02-27T03:49:41.093Z,100733.16
2019-02-27T03:52:47.462Z,100744.58
2019-02-27T03:55:31.824Z,100741.05
2019-02-27T03:58:38.188Z,100736.64
2019-02-27T04:01:35.044Z,100731.27
2019-02-27T04:04:29.569Z,100731.69
2019-02-27T04:07:07.733Z,100724.23
2019-02-27T04:09:42.897Z,100729.00
2019-02-27T04:12:18.507Z,100734.87
2019-02-27T04:14:54.365Z,100741.84
2019-02-27T04:17:29.205Z,100752.41
2019-02-27T04:20:06.687Z,100753.69
2019-02-27T04:22:42.556Z,100748.02
2019-02-27T04:25:18.327Z,100745.37
2019-02-27T04:27:55.671Z,100738.40
2019-02-27T04:30:32.158Z,100732.73
2019-02-27T04:33:08.002Z,100732.84
2019-02-27T04:35:43.863Z,100724.91
2019-02-27T04:38:19.719Z,100732.39
2019-02-27T04:40:55.635Z,100722.38
2019-02-27T04:43:32.273Z,100724.95
2019-02-27T04:46:08.718Z,100718.02
2019-02-27T04:48:44.573Z,100722.78
2019-02-27T04:51:20.414Z,100727.17
2019-02-27T04:53:56.271Z,100729.41
2019-02-27T04:56:32.129Z,100732.84
2019-02-27T04:59:07.988Z,100728.45
2019-02-27T05:01:43.937Z,100736.27
2019-02-27T05:04:19.793Z,100741.50
2019-02-27T05:06:55.693Z,100735.78
2019-02-27T05:09:34.050Z,100739.47
2019-02-27T05:12:09.094Z,100737.65
2019-02-27T05:14:44.950Z,100745.07
2019-02-27T05:17:21.447Z,100740.23
2019-02-27T05:19:57.884Z,100734.66
2019-02-27T05:22:33.651Z,100742.05
2019-02-27T05:25:12.113Z,100735.83
2019-02-27T05:27:47.396Z,100738.31
2019-02-27T05:30:23.250Z,100743.62
2019-02-27T05:33:02.125Z,100742.76
2019-02-27T05:35:36.598Z,100736.64
2019-02-27T05:38:12.365Z,100737.19
2019-02-27T05:40:48.305Z,100743.67
2019-02-27T05:43:24.164Z,100752.47
2019-02-27T05:46:02.757Z,100753.42
2019-02-27T05:48:37.615Z,100762.17
2019-02-27T05:51:13.467Z,100765.70
2019-02-27T05:53:49.312Z,100770.11
2019-02-27T05:56:25.173Z,100766.16
2019-02-27T05:59:01.013Z,100768.25
2019-02-27T06:01:38.251Z,100769.09
2019-02-27T06:04:14.672Z,100774.67
2019-02-27T06:06:50.533Z,100770.27
2019-02-27T06:09:26.487Z,100774.17
2019-02-27T06:12:06.539Z,100777.66
2019-02-27T06:14:39.934Z,100772.39
2019-02-27T06:17:15.794Z,100776.30
2019-02-27T06:19:55.230Z,100776.34
2019-02-27T06:22:31.294Z,100779.37
2019-02-27T06:25:10.212Z,100771.17
2019-02-27T06:27:46.059Z,100762.39
2019-02-27T06:30:22.438Z,100754.04
2019-02-27T06:32:59.308Z,100753.48
2019-02-27T06:35:35.159Z,100747.23
2019-02-27T06:38:11.006Z,100759.77
2019-02-27T06:40:46.868Z,100764.69
2019-02-27T06:43:27.139Z,100763.94
2019-02-27T06:46:00.217Z,100761.82
2019-02-27T06:48:36.069Z,100747.30
2019-02-27T06:51:11.932Z,100739.80
2019-02-27T06:53:47.788Z,100739.80
2019-02-27T06:56:23.624Z,100746.52
2019-02-27T06:58:59.479Z,100755.61
2019-02-27T07:01:35.355Z,100751.48
2019-02-27T07:04:12.327Z,100749.53
2019-02-27T07:06:48.170Z,100747.16
2019-02-27T07:09:24.024Z,100745.30
2019-02-27T07:11:59.886Z,100741.95
2019-02-27T07:14:36.536Z,100744.33
2019-02-27T07:17:13.437Z,100739.98
2019-02-27T07:19:49.731Z,100742.55
2019-02-27T07:22:26.163Z,100738.85
2019-02-27T07:25:06.351Z,100736.00
2019-02-27T07:27:39.814Z,100738.51
2019-02-27T07:30:17.456Z,100736.22
2019-02-27T07:32:53.275Z,100741.81
2019-02-27T07:35:29.315Z,100740.36
2019-02-27T07:38:06.213Z,100735.55
2019-02-27T07:40:43.034Z,100735.91
2019-02-27T07:43:19.342Z,100737.48
2019-02-27T07:45:55.367Z,100742.63
2019-02-27T07:48:31.772Z,100743.80
2019-02-27T07:51:07.622Z,100739.86
2019-02-27T07:53:43.481Z,100735.95
2019-02-27T07:56:19.327Z,100729.51
2019-02-27T07:58:55.181Z,100728.88
2019-02-27T08:01:31.055Z,100727.48
2019-02-27T08:04:06.888Z,100733.03
2019-02-27T08:06:42.748Z,100731.17
2019-02-27T08:09:18.606Z,100734.09
2019-02-27T08:11:54.459Z,100730.67
2019-02-27T08:14:30.317Z,100726.80
2019-02-27T08:17:16.991Z,100724.27
2019-02-27T08:19:45.265Z,100728.83
2019-02-27T08:22:21.145Z,100724.48
2019-02-27T08:24:57.009Z,100717.52
2019-02-27T08:27:33.877Z,100723.09
2019-02-27T08:30:13.315Z,100711.14
2019-02-27T08:32:49.174Z,100717.02
2019-02-27T08:35:25.024Z,100714.64
2019-02-27T08:38:02.761Z,100718.27
2019-02-27T08:40:38.381Z,100720.86
2019-02-27T08:43:14.217Z,100721.16
2019-02-27T08:45:49.974Z,100726.97
2019-02-27T08:48:25.843Z,100721.72
2019-02-27T08:51:05.679Z,100717.28
2019-02-27T08:53:39.284Z,100713.22
2019-02-27T08:56:15.128Z,100710.41
2019-02-27T08:58:50.991Z,100712.79
2019-02-27T09:01:26.854Z,100705.95
2019-02-27T09:04:06.056Z,100703.74
2019-02-27T09:06:41.313Z,100711.08
2019-02-27T09:09:18.000Z,100709.65
2019-02-27T09:11:54.670Z,100707.78
2019-02-27T09:14:30.832Z,100706.71
2019-02-27T09:17:06.670Z,100708.63
2019-02-27T09:19:45.441Z,100703.41
2019-02-27T09:22:20.125Z,100702.64
2019-02-27T09:24:57.188Z,100704.97
2019-02-27T09:27:35.337Z,100703.45
2019-02-27T09:30:13.318Z,100701.46
2019-02-27T09:32:49.282Z,100698.61
2019-02-27T09:35:26.773Z,100694.40
2019-02-27T09:38:02.621Z,100689.26
2019-02-27T09:40:39.565Z,100694.39
2019-02-27T09:43:16.490Z,100690.66
2019-02-27T09:45:52.334Z,100692.78
2019-02-27T09:48:28.083Z,100696.39
2019-02-27T09:51:03.936Z,100692.27
2019-02-27T09:53:39.790Z,100695.11
2019-02-27T09:56:16.063Z,100693.59
2019-02-27T09:58:51.856Z,100690.81
2019-02-27T10:01:29.191Z,100688.85
2019-02-27T10:04:05.155Z,100680.92
2019-02-27T10:06:42.812Z,100680.72
2019-02-27T10:09:19.017Z,100679.33
2019-02-27T10:11:54.875Z,100679.08
2019-02-27T10:14:30.728Z,100666.23
2019-02-27T10:17:06.791Z,100665.94
2019-02-27T10:19:44.068Z,100667.36
2019-02-27T10:22:21.053Z,100667.31
2019-02-27T10:24:57.013Z,100666.39
2019-02-27T10:27:32.774Z,100664.44
2019-02-27T10:30:14.076Z,100657.36
2019-02-27T10:32:50.090Z,100652.53
2019-02-27T10:35:26.782Z,100646.91
2019-02-27T10:38:03.554Z,100648.94
2019-02-27T10:40:39.402Z,100649.05
2019-02-27T10:43:16.272Z,100646.00
2019-02-27T10:45:52.134Z,100638.34
2019-02-27T10:48:27.993Z,100633.69
2019-02-27T10:51:03.847Z,100627.66
2019-02-27T10:53:39.793Z,100623.72
2019-02-27T10:56:15.653Z,100621.53
2019-02-27T10:58:51.420Z,100615.80
2019-02-27T11:01:27.245Z,100609.92
2019-02-27T11:04:03.799Z,100605.63
2019-02-27T11:06:40.706Z,100602.56
2019-02-27T11:09:24.802Z,100588.72
2019-02-27T11:12:00.716Z,100592.34
2019-02-27T11:14:36.553Z,100592.77
2019-02-27T11:17:12.407Z,100586.23
2019-02-27T11:19:48.884Z,100578.60
2019-02-27T11:22:24.745Z,100569.52
2019-02-27T11:25:00.695Z,100565.73
2019-02-27T11:27:38.940Z,100563.78
2019-02-27T11:30:17.170Z,100561.27
2019-02-27T11:32:56.894Z,100558.22
2019-02-27T11:35:30.878Z,100557.07
2019-02-27T11:38:07.253Z,100545.50
2019-02-27T11:40:43.203Z,100545.69
2019-02-27T11:43:19.141Z,100542.55
2019-02-27T11:45:57.813Z,100543.86
2019-02-27T11:48:32.601Z,100525.62
2019-02-27T11:51:08.459Z,100524.02
2019-02-27T11:53:44.305Z,100519.13
2019-02-27T11:56:20.850Z,100510.85
2019-02-27T11:58:57.856Z,100504.08
2019-02-27T12:01:33.718Z,100500.34
2019-02-27T12:04:09.555Z,100486.82
2019-02-27T12:06:45.412Z,100485.17
2019-02-27T12:09:21.270Z,100475.11
2019-02-27T12:11:57.133Z,100471.59
2019-02-27T12:14:32.960Z,100465.28
2019-02-27T12:17:08.833Z,100455.32
2019-02-27T12:19:45.305Z,100451.10
2019-02-27T12:22:21.368Z,100446.78
2019-02-27T12:24:58.329Z,100448.67
2019-02-27T12:27:48.260Z,100445.68
2019-02-27T12:30:20.294Z,100438.41
2019-02-27T12:32:57.059Z,100435.52
2019-02-27T12:35:36.909Z,100433.06
2019-02-27T12:38:12.753Z,100427.33
2019-02-27T12:40:48.642Z,100419.09
2019-02-27T12:43:24.479Z,100415.34
2019-02-27T12:46:00.906Z,100410.14
2019-02-27T12:48:37.516Z,100399.92
2019-02-27T12:51:13.371Z,100399.98
2019-02-27T12:53:49.213Z,100389.93
2019-02-27T12:56:25.081Z,100384.73
2019-02-27T12:59:00.919Z,100376.96
2019-02-27T13:01:36.798Z,100372.30
2019-02-27T13:04:15.988Z,100366.83
2019-02-27T13:06:50.122Z,100358.95
2019-02-27T13:09:26.044Z,100351.84
2019-02-27T13:12:01.842Z,100346.81
2019-02-27T13:14:37.679Z,100338.48
2019-02-27T13:17:13.433Z,100329.36
2019-02-27T13:19:49.292Z,100329.73
2019-02-27T13:22:26.254Z,100325.48
2019-02-27T13:25:02.647Z,100318.92
2019-02-27T13:27:40.369Z,100313.24
2019-02-27T13:30:18.213Z,100310.87
2019-02-27T13:32:54.099Z,100305.75
2019-02-27T13:35:29.947Z,100302.30
2019-02-27T13:38:05.895Z,100291.36
2019-02-27T13:40:41.760Z,100289.55
2019-02-27T13:43:17.615Z,100279.45
2019-02-27T13:45:53.471Z,100281.16
2019-02-27T13:48:30.454Z,100282.89
2019-02-27T13:51:06.293Z,100276.59
2019-02-27T13:53:42.147Z,100270.69
2019-02-27T13:56:18.419Z,100257.16
2019-02-27T13:58:54.265Z,100256.11
2019-02-27T14:01:30.145Z,100250.00
2019-02-27T14:04:06.002Z,100250.69
2019-02-27T14:06:43.493Z,100244.59
2019-02-27T14:09:19.425Z,100243.84
2019-02-27T14:11:58.375Z,100240.97
2019-02-27T14:14:32.871Z,100239.73
2019-02-27T14:17:08.738Z,100236.58
2019-02-27T14:19:44.579Z,100235.73
2019-02-27T14:22:20.437Z,100232.77
2019-02-27T14:24:56.180Z,100230.95
2019-02-27T14:27:32.052Z,100221.81
2019-02-27T14:30:27.147Z,100218.94
2019-02-27T14:33:03.004Z,100208.38
2019-02-27T14:35:39.177Z,100202.74
2019-02-27T14:38:15.429Z,100196.99
2019-02-27T14:40:51.292Z,100200.63
2019-02-27T14:43:27.966Z,100187.27
2019-02-27T14:46:03.818Z,100182.98
2019-02-27T14:48:39.865Z,100187.19
2019-02-27T14:51:15.729Z,100178.20
2019-02-27T14:53:52.705Z,100176.95
2019-02-27T14:56:29.375Z,100169.83
2019-02-27T14:59:05.219Z,100167.33
2019-02-27T15:01:41.091Z,100157.70
2019-02-27T15:04:16.927Z,100155.52
2019-02-27T15:06:52.681Z,100145.88
2019-02-27T15:09:28.652Z,100147.02
2019-02-27T15:12:04.505Z,100132.16
2019-02-27T15:14:40.345Z,100128.80
2019-02-27T15:17:16.199Z,100119.17
2019-02-27T15:19:52.064Z,100115.48
2019-02-27T15:22:27.909Z,100107.36
2019-02-27T15:25:07.896Z,100113.38
2019-02-27T15:27:41.878Z,100107.84
2019-02-27T15:30:20.135Z,100106.41
2019-02-27T15:32:56.615Z,100090.75
2019-02-27T15:35:32.508Z,100090.78
2019-02-27T15:38:11.247Z,100084.95
2019-02-27T15:40:45.954Z,100076.81
2019-02-27T15:43:21.878Z,100072.72
2019-02-27T15:45:57.649Z,100072.59
2019-02-27T15:48:33.479Z,100068.13
2019-02-27T15:51:09.265Z,100065.92
2019-02-27T15:53:49.621Z,100066.67
2019-02-27T15:56:22.512Z,100062.17
2019-02-27T15:58:59.821Z,100051.11
2019-02-27T16:01:35.801Z,100045.64
2019-02-27T16:04:11.656Z,100038.50
2019-02-27T16:06:48.282Z,100041.63
2019-02-27T16:09:24.117Z,100045.30
2019-02-27T16:11:59.954Z,100036.90
2019-02-27T16:14:35.735Z,100038.94
2019-02-27T16:17:11.522Z,100034.13
2019-02-27T16:19:51.854Z,100028.94
2019-02-27T16:22:31.396Z,100034.77
2019-02-27T16:25:09.695Z,100023.81
2019-02-27T16:27:45.475Z,100024.80
2019-02-27T16:30:31.075Z,100023.97
2019-02-27T16:33:04.285Z,100032.41
2019-02-27T16:35:41.979Z,100031.98
2019-02-27T16:38:17.582Z,100028.48
2019-02-27T16:40:53.673Z,100024.05
2019-02-27T16:43:29.382Z,100028.55
2019-02-27T16:46:08.634Z,100022.77
2019-02-27T16:48:42.734Z,100006.91
2019-02-27T16:51:18.537Z,100003.44
2019-02-27T16:53:54.344Z,100006.19
2019-02-27T16:56:30.189Z,100002.19
2019-02-27T16:59:08.275Z,100006.58
2019-02-27T17:02:07.374Z,100004.00
2019-02-27T17:05:05.696Z,100007.59
2019-02-27T17:07:41.573Z,100002.89
2019-02-27T17:10:29.375Z,100001.04
2019-02-27T17:13:05.518Z,100000.09
2019-02-27T17:15:42.238Z,100004.52
2019-02-27T17:18:18.027Z,99995.67
2019-02-27T17:20:53.817Z,99991.59
2019-02-27T17:23:29.553Z,99988.88
2019-02-27T17:26:05.329Z,99985.11
2019-02-27T17:28:41.122Z,99985.80
2019-02-27T17:31:16.887Z,99983.27
2019-02-27T17:33:52.654Z,99982.55
2019-02-27T17:36:31.669Z,99975.27
2019-02-27T17:39:06.795Z,99978.23
2019-02-27T17:41:44.679Z,99970.37
2019-02-27T17:44:21.076Z,99952.50
2019-02-27T17:46:56.786Z,99952.39
2019-02-27T17:49:32.589Z,99949.40
2019-02-27T17:52:11.277Z,99943.87
2019-02-27T17:54:45.790Z,99950.91
2019-02-27T17:57:25.074Z,99950.13
2019-02-27T17:59:59.195Z,99944.85
2019-02-27T18:02:35.051Z,99946.20
2019-02-27T18:05:11.725Z,99944.22
2019-02-27T18:07:47.585Z,99941.77
2019-02-27T18:10:23.641Z,99936.42
2019-02-27T18:13:01.430Z,99928.02
2019-02-27T18:15:36.962Z,99927.88
2019-02-27T18:18:13.449Z,99920.27
2019-02-27T18:20:49.515Z,99918.95
2019-02-27T18:23:25.382Z,99917.30
2019-02-27T18:26:01.171Z,99907.84
2019-02-27T18:28:37.184Z,99909.16
2019-02-27T18:31:13.028Z,99903.77
2019-02-27T18:33:50.176Z,99895.17
2019-02-27T18:36:26.135Z,99897.30
2019-02-27T18:39:02.682Z,99888.70
2019-02-27T18:41:39.981Z,99879.95
2019-02-27T18:44:15.782Z,99879.81
2019-02-27T18:46:51.499Z,99881.36
2019-02-27T18:49:27.357Z,99875.98
2019-02-27T18:52:06.399Z,99864.94
2019-02-27T18:54:40.633Z,99862.70
2019-02-27T18:57:16.396Z,99858.73
2019-02-27T18:59:52.172Z,99850.00
2019-02-27T19:02:27.984Z,99850.80
2019-02-27T19:05:06.668Z,99851.14
2019-02-27T19:07:41.375Z,99854.69
2019-02-27T19:10:17.454Z,99846.70
2019-02-27T19:12:53.350Z,99845.84
2019-02-27T19:15:29.201Z,99834.14
2019-02-27T19:18:06.545Z,99836.78
2019-02-27T19:20:44.951Z,99832.02
2019-02-27T19:23:20.761Z,99829.84
2019-02-27T19:25:56.580Z,99825.73
2019-02-27T19:28:32.561Z,99819.53
2019-02-27T19:31:08.541Z,99818.40
2019-02-27T19:33:44.340Z,99816.99
2019-02-27T19:36:20.142Z,99819.72
2019-02-27T19:38:57.910Z,99816.94
2019-02-27T19:41:38.795Z,99805.38
2019-02-27T19:44:11.323Z,99805.31
2019-02-27T19:46:47.886Z,99803.11
2019-02-27T19:49:23.634Z,99798.95
2019-02-27T19:51:59.493Z,99807.16
2019-02-27T19:54:35.330Z,99803.25
2019-02-27T19:57:11.121Z,99798.76
2019-02-27T19:59:46.974Z,99799.94
2019-02-27T20:02:22.758Z,99793.88
2019-02-27T20:04:58.573Z,99786.92
2019-02-27T20:07:35.785Z,99786.30
2019-02-27T20:10:14.491Z,99776.38
2019-02-27T20:12:52.709Z,99781.78
2019-02-27T20:15:28.056Z,99771.64
2019-02-27T20:18:07.867Z,99769.03
2019-02-27T20:20:41.530Z,99767.76
2019-02-27T20:23:17.373Z,99771.69
2019-02-27T20:25:53.233Z,99763.86
2019-02-27T20:28:31.837Z,99756.61
2019-02-27T20:31:07.567Z,99745.95
2019-02-27T20:33:43.344Z,99746.66
2019-02-27T20:36:19.074Z,99742.20
2019-02-27T20:38:54.872Z,99737.75
2019-02-27T20:41:30.798Z,99740.83
2019-02-27T20:44:06.557Z,99733.34
2019-02-27T20:46:42.320Z,99722.70
2019-02-27T20:49:18.115Z,99705.38
2019-02-27T20:51:54.847Z,99702.18
2019-02-27T20:54:30.645Z,99691.42
2019-02-27T20:57:08.145Z,99687.72
2019-02-27T20:59:43.924Z,99685.13
2019-02-27T21:02:20.555Z,99678.28
2019-02-27T21:04:57.299Z,99672.67
2019-02-27T21:07:33.051Z,99665.32
2019-02-27T21:10:21.002Z,99665.94
2019-02-27T21:12:56.460Z,99657.63
2019-02-27T21:15:33.458Z,99656.21
2019-02-27T21:18:09.463Z,99650.59
2019-02-27T21:20:46.276Z,99644.39
2019-02-27T21:23:23.218Z,99647.05
2019-02-27T21:26:00.028Z,99640.87
2019-02-27T21:28:35.891Z,99644.52
2019-02-27T21:31:11.674Z,99638.78
2019-02-27T21:33:47.503Z,99632.61
2019-02-27T21:36:23.230Z,99629.58
2019-02-27T21:38:59.075Z,99622.65
2019-02-27T21:41:34.869Z,99625.23
2019-02-27T21:44:10.597Z,99612.92
2019-02-27T21:46:47.437Z,99612.45
2019-02-27T21:49:23.347Z,99602.96
2019-02-27T21:51:59.089Z,99607.84
2019-02-27T21:54:38.299Z,99597.20
2019-02-27T21:57:12.337Z,99599.90
2019-02-27T21:59:48.100Z,99594.30
2019-02-27T22:02:23.889Z,99597.20
2019-02-27T22:04:59.659Z,99595.88
2019-02-27T22:07:35.396Z,99592.44
2019-02-27T22:10:19.721Z,99593.70
2019-02-27T22:12:53.488Z,99585.67
2019-02-27T22:15:30.270Z,99581.33
2019-02-27T22:18:08.279Z,99575.34
2019-02-27T22:20:43.570Z,99579.30
2019-02-27T22:23:19.431Z,99573.22
2019-02-27T22:25:55.904Z,99570.63
2019-02-27T22:28:31.758Z,99566.52
2019-02-27T22:31:14.654Z,99553.50
2019-02-27T22:34:02.922Z,99554.39
2019-02-27T22:36:51.768Z,99542.28
2019-02-27T22:39:35.654Z,99543.44
2019-02-27T22:42:38.877Z,99548.41
2019-02-27T22:45:54.259Z,99542.42
2019-02-27T22:48:59.980Z,99528.87
2019-02-27T22:55:54.256Z,99505.77
2019-02-27T22:58:56.240Z,99504.44
2019-02-27T23:01:49.426Z,99503.18
2019-02-27T23:04:24.248Z,99502.86
2019-02-27T23:07:03.556Z,99502.06
2019-02-27T23:09:39.913Z,99497.20
2019-02-27T23:12:47.264Z,99488.21
2019-02-27T23:15:43.836Z,99480.22
2019-02-27T23:18:22.434Z,99469.64
2019-02-27T23:21:03.085Z,99478.48
2019-02-27T23:23:46.841Z,99478.64
2019-02-27T23:26:26.602Z,99473.03
2019-02-27T23:29:05.589Z,99477.47
2019-02-27T23:32:04.450Z,99477.14
2019-02-27T23:35:16.721Z,99475.03
2019-02-27T23:38:02.943Z,99468.05
2019-02-27T23:40:42.697Z,99476.03
2019-02-27T23:43:23.825Z,99482.11
2019-02-27T23:46:02.224Z,99473.33
2019-02-27T23:48:39.175Z,99465.46
2019-02-27T23:51:24.609Z,99459.33
2019-02-27T23:54:15.446Z,99448.97
2019-02-27T23:57:07.042Z,99447.33
